sensor_id;sensor_type;location;lat;lon;timestamp;P1;durP1;ratioP1;P2;durP2;ratioP2
74471;SDS011;62920;53.572;10.050;2023-08-21T00:01:02;10.20;;;2.70;;
74471;SDS011;62920;53.572;10.050;2023-08-21T00:03:27;8.02;;;2.22;;
74471;SDS011;62920;53.572;10.050;2023-08-21T00:05:52;6.72;;;2.15;;
74471;SDS011;62920;53.572;10.050;2023-08-21T00:08:18;7.45;;;2.42;;
74471;SDS011;62920;53.572;10.050;2023-08-21T00:10:43;11.77;;;2.53;;
74471;SDS011;62920;53.572;10.050;2023-08-21T00:13:09;14.35;;;2.72;;
74471;SDS011;62920;53.572;10.050;2023-08-21T00:15:34;8.20;;;2.47;;
74471;SDS011;62920;53.572;10.050;2023-08-21T00:18:00;8.65;;;2.67;;
74471;SDS011;62920;53.572;10.050;2023-08-21T00:20:26;8.23;;;2.45;;
74471;SDS011;62920;53.572;10.050;2023-08-21T00:22:51;9.20;;;2.88;;
74471;SDS011;62920;53.572;10.050;2023-08-21T00:25:17;7.22;;;2.60;;
74471;SDS011;62920;53.572;10.050;2023-08-21T00:27:42;8.10;;;2.30;;
74471;SDS011;62920;53.572;10.050;2023-08-21T00:30:08;9.13;;;2.30;;
74471;SDS011;62920;53.572;10.050;2023-08-21T00:32:34;7.53;;;2.28;;
74471;SDS011;62920;53.572;10.050;2023-08-21T00:34:59;7.93;;;2.35;;
74471;SDS011;62920;53.572;10.050;2023-08-21T00:37:24;7.25;;;2.42;;
74471;SDS011;62920;53.572;10.050;2023-08-21T00:39:50;8.35;;;2.47;;
74471;SDS011;62920;53.572;10.050;2023-08-21T00:42:15;4.97;;;2.10;;
74471;SDS011;62920;53.572;10.050;2023-08-21T00:44:41;6.57;;;2.53;;
74471;SDS011;62920;53.572;10.050;2023-08-21T00:47:06;8.65;;;2.60;;
74471;SDS011;62920;53.572;10.050;2023-08-21T00:49:31;8.65;;;2.75;;
74471;SDS011;62920;53.572;10.050;2023-08-21T00:51:57;7.38;;;2.20;;
74471;SDS011;62920;53.572;10.050;2023-08-21T00:54:23;8.38;;;2.63;;
74471;SDS011;62920;53.572;10.050;2023-08-21T00:56:48;8.52;;;2.63;;
74471;SDS011;62920;53.572;10.050;2023-08-21T00:59:17;6.35;;;2.40;;
74471;SDS011;62920;53.572;10.050;2023-08-21T01:01:43;5.47;;;2.40;;
74471;SDS011;62920;53.572;10.050;2023-08-21T01:04:08;11.57;;;2.45;;
74471;SDS011;62920;53.572;10.050;2023-08-21T01:06:34;8.32;;;2.45;;
74471;SDS011;62920;53.572;10.050;2023-08-21T01:09:04;8.05;;;2.50;;
74471;SDS011;62920;53.572;10.050;2023-08-21T01:14:28;7.38;;;2.40;;
74471;SDS011;62920;53.572;10.050;2023-08-21T01:16:59;5.40;;;2.40;;
74471;SDS011;62920;53.572;10.050;2023-08-21T01:19:34;7.95;;;2.25;;
74471;SDS011;62920;53.572;10.050;2023-08-21T01:22:01;7.03;;;2.50;;
74471;SDS011;62920;53.572;10.050;2023-08-21T01:24:27;10.07;;;2.78;;
74471;SDS011;62920;53.572;10.050;2023-08-21T01:26:52;8.15;;;2.53;;
74471;SDS011;62920;53.572;10.050;2023-08-21T01:29:18;8.32;;;2.75;;
74471;SDS011;62920;53.572;10.050;2023-08-21T01:31:44;6.43;;;2.53;;
74471;SDS011;62920;53.572;10.050;2023-08-21T01:34:13;9.27;;;2.58;;
74471;SDS011;62920;53.572;10.050;2023-08-21T01:36:39;6.85;;;2.00;;
74471;SDS011;62920;53.572;10.050;2023-08-21T01:39:05;5.90;;;2.20;;
74471;SDS011;62920;53.572;10.050;2023-08-21T01:41:31;9.70;;;2.78;;
74471;SDS011;62920;53.572;10.050;2023-08-21T01:43:56;7.22;;;2.60;;
74471;SDS011;62920;53.572;10.050;2023-08-21T01:46:21;7.70;;;2.33;;
74471;SDS011;62920;53.572;10.050;2023-08-21T01:48:47;5.20;;;2.65;;
74471;SDS011;62920;53.572;10.050;2023-08-21T01:51:12;6.80;;;2.47;;
74471;SDS011;62920;53.572;10.050;2023-08-21T01:53:38;7.90;;;2.55;;
74471;SDS011;62920;53.572;10.050;2023-08-21T01:56:03;7.68;;;2.53;;
74471;SDS011;62920;53.572;10.050;2023-08-21T01:58:28;12.85;;;2.80;;
74471;SDS011;62920;53.572;10.050;2023-08-21T02:00:54;7.20;;;2.40;;
74471;SDS011;62920;53.572;10.050;2023-08-21T02:03:19;8.52;;;2.83;;
74471;SDS011;62920;53.572;10.050;2023-08-21T02:05:44;8.20;;;2.60;;
74471;SDS011;62920;53.572;10.050;2023-08-21T02:08:12;7.80;;;3.05;;
74471;SDS011;62920;53.572;10.050;2023-08-21T02:10:46;6.88;;;2.40;;
74471;SDS011;62920;53.572;10.050;2023-08-21T02:13:13;9.00;;;2.88;;
74471;SDS011;62920;53.572;10.050;2023-08-21T02:15:38;7.53;;;3.00;;
74471;SDS011;62920;53.572;10.050;2023-08-21T02:18:04;7.60;;;2.38;;
74471;SDS011;62920;53.572;10.050;2023-08-21T02:20:29;8.25;;;2.85;;
74471;SDS011;62920;53.572;10.050;2023-08-21T02:22:55;11.57;;;3.10;;
74471;SDS011;62920;53.572;10.050;2023-08-21T02:25:20;6.53;;;2.65;;
74471;SDS011;62920;53.572;10.050;2023-08-21T02:27:45;10.32;;;2.72;;
74471;SDS011;62920;53.572;10.050;2023-08-21T02:30:11;7.80;;;2.83;;
74471;SDS011;62920;53.572;10.050;2023-08-21T02:32:37;7.72;;;3.05;;
74471;SDS011;62920;53.572;10.050;2023-08-21T02:37:28;7.45;;;2.50;;
74471;SDS011;62920;53.572;10.050;2023-08-21T02:39:54;7.75;;;2.72;;
74471;SDS011;62920;53.572;10.050;2023-08-21T02:42:19;9.05;;;2.88;;
74471;SDS011;62920;53.572;10.050;2023-08-21T02:44:45;6.07;;;2.85;;
74471;SDS011;62920;53.572;10.050;2023-08-21T02:47:10;8.15;;;3.00;;
74471;SDS011;62920;53.572;10.050;2023-08-21T02:49:35;8.73;;;3.10;;
74471;SDS011;62920;53.572;10.050;2023-08-21T02:52:01;6.47;;;2.80;;
74471;SDS011;62920;53.572;10.050;2023-08-21T02:54:27;8.80;;;3.00;;
74471;SDS011;62920;53.572;10.050;2023-08-21T02:56:53;7.05;;;2.67;;
74471;SDS011;62920;53.572;10.050;2023-08-21T02:59:18;8.13;;;2.90;;
74471;SDS011;62920;53.572;10.050;2023-08-21T03:01:43;7.35;;;2.95;;
74471;SDS011;62920;53.572;10.050;2023-08-21T03:04:09;6.63;;;2.65;;
74471;SDS011;62920;53.572;10.050;2023-08-21T03:06:34;10.18;;;2.92;;
74471;SDS011;62920;53.572;10.050;2023-08-21T03:08:59;6.75;;;3.05;;
74471;SDS011;62920;53.572;10.050;2023-08-21T03:11:25;9.13;;;2.55;;
74471;SDS011;62920;53.572;10.050;2023-08-21T03:13:50;8.02;;;2.67;;
74471;SDS011;62920;53.572;10.050;2023-08-21T03:16:15;11.00;;;2.90;;
74471;SDS011;62920;53.572;10.050;2023-08-21T03:18:57;6.97;;;2.85;;
74471;SDS011;62920;53.572;10.050;2023-08-21T03:21:23;8.40;;;2.70;;
74471;SDS011;62920;53.572;10.050;2023-08-21T03:23:54;8.20;;;2.47;;
74471;SDS011;62920;53.572;10.050;2023-08-21T03:26:21;7.13;;;2.50;;
74471;SDS011;62920;53.572;10.050;2023-08-21T03:28:47;8.18;;;2.70;;
74471;SDS011;62920;53.572;10.050;2023-08-21T03:31:12;8.75;;;2.45;;
74471;SDS011;62920;53.572;10.050;2023-08-21T03:33:37;8.93;;;2.72;;
74471;SDS011;62920;53.572;10.050;2023-08-21T03:36:03;7.97;;;2.72;;
74471;SDS011;62920;53.572;10.050;2023-08-21T03:38:29;8.50;;;3.03;;
74471;SDS011;62920;53.572;10.050;2023-08-21T03:40:54;6.43;;;2.60;;
74471;SDS011;62920;53.572;10.050;2023-08-21T03:43:19;9.63;;;3.03;;
74471;SDS011;62920;53.572;10.050;2023-08-21T03:45:45;6.47;;;2.58;;
74471;SDS011;62920;53.572;10.050;2023-08-21T03:48:10;7.45;;;2.55;;
74471;SDS011;62920;53.572;10.050;2023-08-21T03:50:35;7.93;;;2.83;;
74471;SDS011;62920;53.572;10.050;2023-08-21T03:53:01;7.63;;;2.70;;
74471;SDS011;62920;53.572;10.050;2023-08-21T03:55:26;6.65;;;2.42;;
74471;SDS011;62920;53.572;10.050;2023-08-21T03:57:52;9.57;;;2.47;;
74471;SDS011;62920;53.572;10.050;2023-08-21T04:00:17;8.35;;;2.83;;
74471;SDS011;62920;53.572;10.050;2023-08-21T04:02:43;7.72;;;2.50;;
74471;SDS011;62920;53.572;10.050;2023-08-21T04:05:08;9.88;;;2.80;;
74471;SDS011;62920;53.572;10.050;2023-08-21T04:07:35;5.95;;;2.45;;
74471;SDS011;62920;53.572;10.050;2023-08-21T04:10:00;7.97;;;2.67;;
74471;SDS011;62920;53.572;10.050;2023-08-21T04:12:26;7.70;;;2.70;;
74471;SDS011;62920;53.572;10.050;2023-08-21T04:14:51;8.70;;;2.55;;
74471;SDS011;62920;53.572;10.050;2023-08-21T04:17:23;6.65;;;2.80;;
74471;SDS011;62920;53.572;10.050;2023-08-21T04:19:51;7.65;;;2.67;;
74471;SDS011;62920;53.572;10.050;2023-08-21T04:22:17;7.68;;;2.90;;
74471;SDS011;62920;53.572;10.050;2023-08-21T04:24:42;10.38;;;2.92;;
74471;SDS011;62920;53.572;10.050;2023-08-21T04:27:08;7.15;;;2.72;;
74471;SDS011;62920;53.572;10.050;2023-08-21T04:29:35;15.10;;;3.10;;
74471;SDS011;62920;53.572;10.050;2023-08-21T04:32:00;9.38;;;3.38;;
74471;SDS011;62920;53.572;10.050;2023-08-21T04:34:26;9.60;;;2.78;;
74471;SDS011;62920;53.572;10.050;2023-08-21T04:36:51;7.13;;;2.67;;
74471;SDS011;62920;53.572;10.050;2023-08-21T04:39:17;6.47;;;2.40;;
74471;SDS011;62920;53.572;10.050;2023-08-21T04:41:42;7.47;;;2.92;;
74471;SDS011;62920;53.572;10.050;2023-08-21T04:44:08;10.88;;;2.90;;
74471;SDS011;62920;53.572;10.050;2023-08-21T04:46:33;9.05;;;3.38;;
74471;SDS011;62920;53.572;10.050;2023-08-21T04:48:59;9.38;;;2.70;;
74471;SDS011;62920;53.572;10.050;2023-08-21T04:51:24;6.38;;;2.65;;
74471;SDS011;62920;53.572;10.050;2023-08-21T04:53:49;12.07;;;2.65;;
74471;SDS011;62920;53.572;10.050;2023-08-21T04:56:15;7.78;;;2.90;;
74471;SDS011;62920;53.572;10.050;2023-08-21T04:58:40;9.13;;;2.85;;
74471;SDS011;62920;53.572;10.050;2023-08-21T05:01:06;9.73;;;3.67;;
74471;SDS011;62920;53.572;10.050;2023-08-21T05:03:31;11.38;;;2.83;;
74471;SDS011;62920;53.572;10.050;2023-08-21T05:05:56;9.45;;;2.80;;
74471;SDS011;62920;53.572;10.050;2023-08-21T05:08:23;7.68;;;2.53;;
74471;SDS011;62920;53.572;10.050;2023-08-21T05:10:53;10.20;;;3.00;;
74471;SDS011;62920;53.572;10.050;2023-08-21T05:13:19;9.43;;;2.92;;
74471;SDS011;62920;53.572;10.050;2023-08-21T05:15:49;11.48;;;2.92;;
74471;SDS011;62920;53.572;10.050;2023-08-21T05:18:19;11.60;;;2.60;;
74471;SDS011;62920;53.572;10.050;2023-08-21T05:20:45;9.30;;;2.40;;
74471;SDS011;62920;53.572;10.050;2023-08-21T05:23:11;7.40;;;2.90;;
74471;SDS011;62920;53.572;10.050;2023-08-21T05:25:36;10.70;;;2.95;;
74471;SDS011;62920;53.572;10.050;2023-08-21T05:28:02;10.20;;;2.58;;
74471;SDS011;62920;53.572;10.050;2023-08-21T05:30:27;12.15;;;2.65;;
74471;SDS011;62920;53.572;10.050;2023-08-21T05:32:53;10.77;;;2.50;;
74471;SDS011;62920;53.572;10.050;2023-08-21T05:35:18;10.52;;;2.40;;
74471;SDS011;62920;53.572;10.050;2023-08-21T05:37:43;9.77;;;2.75;;
74471;SDS011;62920;53.572;10.050;2023-08-21T05:42:35;9.40;;;2.03;;
74471;SDS011;62920;53.572;10.050;2023-08-21T05:45:00;10.30;;;2.50;;
74471;SDS011;62920;53.572;10.050;2023-08-21T05:47:26;9.68;;;2.47;;
74471;SDS011;62920;53.572;10.050;2023-08-21T05:49:51;10.32;;;2.65;;
74471;SDS011;62920;53.572;10.050;2023-08-21T05:52:18;7.75;;;2.05;;
74471;SDS011;62920;53.572;10.050;2023-08-21T05:54:43;8.68;;;2.00;;
74471;SDS011;62920;53.572;10.050;2023-08-21T05:57:09;8.43;;;2.00;;
74471;SDS011;62920;53.572;10.050;2023-08-21T05:59:34;7.72;;;2.40;;
74471;SDS011;62920;53.572;10.050;2023-08-21T06:01:59;7.95;;;2.15;;
74471;SDS011;62920;53.572;10.050;2023-08-21T06:04:25;6.88;;;2.08;;
74471;SDS011;62920;53.572;10.050;2023-08-21T06:06:52;9.70;;;1.60;;
74471;SDS011;62920;53.572;10.050;2023-08-21T06:09:17;9.38;;;1.92;;
74471;SDS011;62920;53.572;10.050;2023-08-21T06:11:43;12.52;;;1.95;;
74471;SDS011;62920;53.572;10.050;2023-08-21T06:14:08;10.27;;;1.70;;
74471;SDS011;62920;53.572;10.050;2023-08-21T06:16:33;8.63;;;1.92;;
74471;SDS011;62920;53.572;10.050;2023-08-21T06:18:59;10.02;;;1.92;;
74471;SDS011;62920;53.572;10.050;2023-08-21T06:21:24;11.70;;;1.60;;
74471;SDS011;62920;53.572;10.050;2023-08-21T06:23:50;8.95;;;1.60;;
74471;SDS011;62920;53.572;10.050;2023-08-21T06:26:15;6.65;;;1.55;;
74471;SDS011;62920;53.572;10.050;2023-08-21T06:28:40;8.25;;;1.50;;
74471;SDS011;62920;53.572;10.050;2023-08-21T06:31:08;7.38;;;1.50;;
74471;SDS011;62920;53.572;10.050;2023-08-21T06:33:33;6.88;;;1.40;;
74471;SDS011;62920;53.572;10.050;2023-08-21T06:35:59;6.18;;;1.40;;
74471;SDS011;62920;53.572;10.050;2023-08-21T06:38:24;8.07;;;1.23;;
74471;SDS011;62920;53.572;10.050;2023-08-21T06:40:50;9.02;;;1.55;;
74471;SDS011;62920;53.572;10.050;2023-08-21T06:43:16;8.90;;;1.15;;
74471;SDS011;62920;53.572;10.050;2023-08-21T06:45:42;8.10;;;1.20;;
74471;SDS011;62920;53.572;10.050;2023-08-21T06:48:07;5.05;;;1.27;;
74471;SDS011;62920;53.572;10.050;2023-08-21T06:50:32;8.95;;;1.45;;
74471;SDS011;62920;53.572;10.050;2023-08-21T06:52:58;9.63;;;1.50;;
74471;SDS011;62920;53.572;10.050;2023-08-21T06:55:23;7.32;;;1.15;;
74471;SDS011;62920;53.572;10.050;2023-08-21T06:57:49;5.05;;;1.08;;
74471;SDS011;62920;53.572;10.050;2023-08-21T07:00:14;7.28;;;1.23;;
74471;SDS011;62920;53.572;10.050;2023-08-21T07:02:40;5.95;;;1.10;;
74471;SDS011;62920;53.572;10.050;2023-08-21T07:05:05;6.65;;;1.27;;
74471;SDS011;62920;53.572;10.050;2023-08-21T07:07:31;6.05;;;1.20;;
74471;SDS011;62920;53.572;10.050;2023-08-21T07:09:58;5.55;;;1.13;;
74471;SDS011;62920;53.572;10.050;2023-08-21T07:12:23;6.30;;;1.15;;
74471;SDS011;62920;53.572;10.050;2023-08-21T07:14:48;5.47;;;1.08;;
74471;SDS011;62920;53.572;10.050;2023-08-21T07:17:14;6.03;;;1.00;;
74471;SDS011;62920;53.572;10.050;2023-08-21T07:19:39;6.63;;;1.00;;
74471;SDS011;62920;53.572;10.050;2023-08-21T07:22:04;6.03;;;1.23;;
74471;SDS011;62920;53.572;10.050;2023-08-21T07:24:30;5.97;;;1.20;;
74471;SDS011;62920;53.572;10.050;2023-08-21T07:26:55;6.65;;;1.33;;
74471;SDS011;62920;53.572;10.050;2023-08-21T07:29:21;7.40;;;1.50;;
74471;SDS011;62920;53.572;10.050;2023-08-21T07:31:46;5.43;;;1.08;;
74471;SDS011;62920;53.572;10.050;2023-08-21T07:34:12;7.35;;;1.40;;
74471;SDS011;62920;53.572;10.050;2023-08-21T07:36:37;7.57;;;1.10;;
74471;SDS011;62920;53.572;10.050;2023-08-21T07:39:02;4.95;;;0.90;;
74471;SDS011;62920;53.572;10.050;2023-08-21T07:41:28;4.60;;;0.98;;
74471;SDS011;62920;53.572;10.050;2023-08-21T07:43:54;6.07;;;0.90;;
74471;SDS011;62920;53.572;10.050;2023-08-21T07:46:19;6.40;;;1.02;;
74471;SDS011;62920;53.572;10.050;2023-08-21T07:48:45;5.35;;;0.80;;
74471;SDS011;62920;53.572;10.050;2023-08-21T07:51:11;3.72;;;1.13;;
74471;SDS011;62920;53.572;10.050;2023-08-21T07:53:36;10.23;;;1.20;;
74471;SDS011;62920;53.572;10.050;2023-08-21T07:56:03;6.43;;;0.90;;
74471;SDS011;62920;53.572;10.050;2023-08-21T07:58:29;7.07;;;1.20;;
74471;SDS011;62920;53.572;10.050;2023-08-21T08:00:55;5.97;;;1.45;;
74471;SDS011;62920;53.572;10.050;2023-08-21T08:03:20;5.57;;;1.05;;
74471;SDS011;62920;53.572;10.050;2023-08-21T08:05:46;4.28;;;1.00;;
74471;SDS011;62920;53.572;10.050;2023-08-21T08:08:11;3.65;;;0.90;;
74471;SDS011;62920;53.572;10.050;2023-08-21T08:10:37;5.50;;;1.08;;
74471;SDS011;62920;53.572;10.050;2023-08-21T08:13:04;5.45;;;0.98;;
74471;SDS011;62920;53.572;10.050;2023-08-21T08:15:29;5.97;;;1.13;;
74471;SDS011;62920;53.572;10.050;2023-08-21T08:17:55;7.50;;;1.25;;
74471;SDS011;62920;53.572;10.050;2023-08-21T08:20:20;5.13;;;1.20;;
74471;SDS011;62920;53.572;10.050;2023-08-21T08:22:46;5.70;;;1.00;;
74471;SDS011;62920;53.572;10.050;2023-08-21T08:25:11;6.32;;;1.05;;
74471;SDS011;62920;53.572;10.050;2023-08-21T08:27:38;5.72;;;0.93;;
74471;SDS011;62920;53.572;10.050;2023-08-21T08:30:04;4.10;;;0.90;;
74471;SDS011;62920;53.572;10.050;2023-08-21T08:32:30;7.25;;;1.27;;
74471;SDS011;62920;53.572;10.050;2023-08-21T08:34:55;5.63;;;1.17;;
74471;SDS011;62920;53.572;10.050;2023-08-21T08:37:20;5.10;;;0.85;;
74471;SDS011;62920;53.572;10.050;2023-08-21T08:39:46;10.82;;;1.30;;
74471;SDS011;62920;53.572;10.050;2023-08-21T08:42:12;4.82;;;0.90;;
74471;SDS011;62920;53.572;10.050;2023-08-21T08:44:39;5.03;;;1.08;;
74471;SDS011;62920;53.572;10.050;2023-08-21T08:47:06;5.03;;;0.77;;
74471;SDS011;62920;53.572;10.050;2023-08-21T08:49:32;5.57;;;0.90;;
74471;SDS011;62920;53.572;10.050;2023-08-21T08:51:57;6.38;;;1.05;;
74471;SDS011;62920;53.572;10.050;2023-08-21T08:54:23;3.50;;;0.85;;
74471;SDS011;62920;53.572;10.050;2023-08-21T08:56:50;4.05;;;0.80;;
74471;SDS011;62920;53.572;10.050;2023-08-21T08:59:15;5.50;;;1.20;;
74471;SDS011;62920;53.572;10.050;2023-08-21T09:01:41;5.55;;;0.80;;
74471;SDS011;62920;53.572;10.050;2023-08-21T09:04:06;7.63;;;1.00;;
74471;SDS011;62920;53.572;10.050;2023-08-21T09:08:58;5.40;;;1.08;;
74471;SDS011;62920;53.572;10.050;2023-08-21T09:11:24;4.43;;;0.90;;
74471;SDS011;62920;53.572;10.050;2023-08-21T09:13:49;6.53;;;1.10;;
74471;SDS011;62920;53.572;10.050;2023-08-21T09:16:17;5.07;;;1.10;;
74471;SDS011;62920;53.572;10.050;2023-08-21T09:18:49;3.55;;;0.90;;
74471;SDS011;62920;53.572;10.050;2023-08-21T09:21:24;5.18;;;1.00;;
74471;SDS011;62920;53.572;10.050;2023-08-21T09:23:55;5.38;;;0.80;;
74471;SDS011;62920;53.572;10.050;2023-08-21T09:26:23;3.95;;;0.88;;
74471;SDS011;62920;53.572;10.050;2023-08-21T09:28:49;4.75;;;1.00;;
74471;SDS011;62920;53.572;10.050;2023-08-21T09:31:15;2.60;;;0.52;;
74471;SDS011;62920;53.572;10.050;2023-08-21T09:33:42;3.13;;;0.70;;
74471;SDS011;62920;53.572;10.050;2023-08-21T09:36:08;4.55;;;0.82;;
74471;SDS011;62920;53.572;10.050;2023-08-21T09:38:34;4.65;;;0.80;;
74471;SDS011;62920;53.572;10.050;2023-08-21T09:41:02;5.47;;;0.82;;
74471;SDS011;62920;53.572;10.050;2023-08-21T09:43:28;3.80;;;0.75;;
74471;SDS011;62920;53.572;10.050;2023-08-21T09:45:54;5.80;;;1.30;;
74471;SDS011;62920;53.572;10.050;2023-08-21T09:48:26;4.43;;;0.85;;
74471;SDS011;62920;53.572;10.050;2023-08-21T09:50:52;4.85;;;0.90;;
74471;SDS011;62920;53.572;10.050;2023-08-21T09:55:45;3.50;;;0.85;;
74471;SDS011;62920;53.572;10.050;2023-08-21T10:00:36;3.83;;;0.60;;
74471;SDS011;62920;53.572;10.050;2023-08-21T10:03:03;4.35;;;0.88;;
74471;SDS011;62920;53.572;10.050;2023-08-21T10:05:33;3.75;;;0.75;;
74471;SDS011;62920;53.572;10.050;2023-08-21T10:08:00;3.88;;;0.73;;
74471;SDS011;62920;53.572;10.050;2023-08-21T10:10:30;3.10;;;0.65;;
74471;SDS011;62920;53.572;10.050;2023-08-21T10:12:57;4.68;;;0.80;;
74471;SDS011;62920;53.572;10.050;2023-08-21T10:15:24;6.47;;;0.93;;
74471;SDS011;62920;53.572;10.050;2023-08-21T10:20:15;2.87;;;0.60;;
74471;SDS011;62920;53.572;10.050;2023-08-21T10:22:52;3.85;;;1.13;;
74471;SDS011;62920;53.572;10.050;2023-08-21T10:25:20;4.65;;;0.88;;
74471;SDS011;62920;53.572;10.050;2023-08-21T10:27:54;3.10;;;0.52;;
74471;SDS011;62920;53.572;10.050;2023-08-21T10:30:24;4.13;;;0.70;;
74471;SDS011;62920;53.572;10.050;2023-08-21T10:32:52;4.63;;;0.90;;
74471;SDS011;62920;53.572;10.050;2023-08-21T10:35:20;4.00;;;0.75;;
74471;SDS011;62920;53.572;10.050;2023-08-21T10:43:45;3.42;;;0.60;;
74471;SDS011;62920;53.572;10.050;2023-08-21T10:46:11;9.55;;;0.95;;
74471;SDS011;62920;53.572;10.050;2023-08-21T10:51:04;2.55;;;0.60;;
74471;SDS011;62920;53.572;10.050;2023-08-21T10:53:30;3.55;;;0.77;;
74471;SDS011;62920;53.572;10.050;2023-08-21T10:56:16;2.95;;;1.05;;
74471;SDS011;62920;53.572;10.050;2023-08-21T11:01:07;4.10;;;0.63;;
74471;SDS011;62920;53.572;10.050;2023-08-21T11:06:04;3.87;;;0.87;;
74471;SDS011;62920;53.572;10.050;2023-08-21T11:08:33;5.82;;;1.33;;
74471;SDS011;62920;53.572;10.050;2023-08-21T11:11:02;2.92;;;0.68;;
74471;SDS011;62920;53.572;10.050;2023-08-21T11:13:29;4.18;;;0.95;;
74471;SDS011;62920;53.572;10.050;2023-08-21T11:16:02;4.00;;;0.65;;
74471;SDS011;62920;53.572;10.050;2023-08-21T11:18:29;5.38;;;0.90;;
74471;SDS011;62920;53.572;10.050;2023-08-21T11:21:02;3.95;;;0.68;;
74471;SDS011;62920;53.572;10.050;2023-08-21T11:23:31;3.78;;;0.82;;
74471;SDS011;62920;53.572;10.050;2023-08-21T11:25:58;4.45;;;0.80;;
74471;SDS011;62920;53.572;10.050;2023-08-21T11:30:49;3.17;;;0.57;;
74471;SDS011;62920;53.572;10.050;2023-08-21T11:35:39;1.53;;;0.50;;
74471;SDS011;62920;53.572;10.050;2023-08-21T11:38:05;4.07;;;0.68;;
74471;SDS011;62920;53.572;10.050;2023-08-21T11:40:35;3.85;;;0.50;;
74471;SDS011;62920;53.572;10.050;2023-08-21T11:43:00;2.53;;;0.63;;
74471;SDS011;62920;53.572;10.050;2023-08-21T11:45:26;2.75;;;0.60;;
74471;SDS011;62920;53.572;10.050;2023-08-21T11:47:54;1.90;;;0.43;;
74471;SDS011;62920;53.572;10.050;2023-08-21T11:50:20;3.25;;;0.63;;
74471;SDS011;62920;53.572;10.050;2023-08-21T11:52:46;5.10;;;0.95;;
74471;SDS011;62920;53.572;10.050;2023-08-21T11:55:11;4.22;;;0.65;;
74471;SDS011;62920;53.572;10.050;2023-08-21T11:57:49;3.13;;;0.60;;
74471;SDS011;62920;53.572;10.050;2023-08-21T12:00:19;4.82;;;0.70;;
74471;SDS011;62920;53.572;10.050;2023-08-21T12:02:57;3.15;;;0.85;;
74471;SDS011;62920;53.572;10.050;2023-08-21T12:05:24;2.75;;;0.60;;
74471;SDS011;62920;53.572;10.050;2023-08-21T12:07:49;3.85;;;0.73;;
74471;SDS011;62920;53.572;10.050;2023-08-21T12:10:21;3.33;;;0.82;;
74471;SDS011;62920;53.572;10.050;2023-08-21T12:12:47;4.13;;;0.75;;
74471;SDS011;62920;53.572;10.050;2023-08-21T12:15:13;3.60;;;0.70;;
74471;SDS011;62920;53.572;10.050;2023-08-21T12:17:38;5.40;;;0.80;;
74471;SDS011;62920;53.572;10.050;2023-08-21T12:20:04;2.72;;;0.70;;
74471;SDS011;62920;53.572;10.050;2023-08-21T12:22:35;4.60;;;0.80;;
74471;SDS011;62920;53.572;10.050;2023-08-21T12:25:01;2.78;;;0.70;;
74471;SDS011;62920;53.572;10.050;2023-08-21T12:27:27;3.97;;;0.73;;
74471;SDS011;62920;53.572;10.050;2023-08-21T12:29:53;2.58;;;0.52;;
74471;SDS011;62920;53.572;10.050;2023-08-21T12:32:18;2.75;;;0.73;;
74471;SDS011;62920;53.572;10.050;2023-08-21T12:34:43;5.00;;;0.88;;
74471;SDS011;62920;53.572;10.050;2023-08-21T12:37:09;3.42;;;0.82;;
74471;SDS011;62920;53.572;10.050;2023-08-21T12:39:34;4.22;;;0.82;;
74471;SDS011;62920;53.572;10.050;2023-08-21T12:41:59;3.53;;;0.90;;
74471;SDS011;62920;53.572;10.050;2023-08-21T12:44:25;5.53;;;0.73;;
74471;SDS011;62920;53.572;10.050;2023-08-21T12:46:50;3.03;;;0.82;;
74471;SDS011;62920;53.572;10.050;2023-08-21T12:49:16;7.68;;;0.93;;
74471;SDS011;62920;53.572;10.050;2023-08-21T12:51:41;3.35;;;0.93;;
74471;SDS011;62920;53.572;10.050;2023-08-21T12:54:07;4.68;;;0.85;;
74471;SDS011;62920;53.572;10.050;2023-08-21T12:56:34;4.43;;;0.85;;
74471;SDS011;62920;53.572;10.050;2023-08-21T12:58:59;4.20;;;0.88;;
74471;SDS011;62920;53.572;10.050;2023-08-21T13:01:25;3.25;;;0.70;;
74471;SDS011;62920;53.572;10.050;2023-08-21T13:03:51;3.50;;;0.90;;
74471;SDS011;62920;53.572;10.050;2023-08-21T13:06:16;3.75;;;0.80;;
74471;SDS011;62920;53.572;10.050;2023-08-21T13:08:41;3.58;;;0.80;;
74471;SDS011;62920;53.572;10.050;2023-08-21T13:13:33;2.72;;;0.80;;
74471;SDS011;62920;53.572;10.050;2023-08-21T13:18:25;4.63;;;0.88;;
74471;SDS011;62920;53.572;10.050;2023-08-21T13:20:50;3.78;;;0.70;;
74471;SDS011;62920;53.572;10.050;2023-08-21T13:23:15;3.55;;;0.80;;
74471;SDS011;62920;53.572;10.050;2023-08-21T13:25:41;3.25;;;0.95;;
74471;SDS011;62920;53.572;10.050;2023-08-21T13:28:06;4.10;;;0.90;;
74471;SDS011;62920;53.572;10.050;2023-08-21T13:32:57;4.53;;;0.80;;
74471;SDS011;62920;53.572;10.050;2023-08-21T13:37:49;2.95;;;0.63;;
74471;SDS011;62920;53.572;10.050;2023-08-21T13:40:15;10.40;;;0.82;;
74471;SDS011;62920;53.572;10.050;2023-08-21T13:42:42;4.80;;;0.70;;
74471;SDS011;62920;53.572;10.050;2023-08-21T13:45:09;2.65;;;0.60;;
74471;SDS011;62920;53.572;10.050;2023-08-21T13:47:39;3.55;;;0.80;;
74471;SDS011;62920;53.572;10.050;2023-08-21T13:50:08;2.72;;;0.88;;
74471;SDS011;62920;53.572;10.050;2023-08-21T13:52:34;4.78;;;0.80;;
74471;SDS011;62920;53.572;10.050;2023-08-21T13:57:25;2.92;;;0.73;;
74471;SDS011;62920;53.572;10.050;2023-08-21T14:02:16;3.67;;;0.90;;
74471;SDS011;62920;53.572;10.050;2023-08-21T14:04:43;3.92;;;0.90;;
74471;SDS011;62920;53.572;10.050;2023-08-21T14:09:34;5.10;;;0.87;;
74471;SDS011;62920;53.572;10.050;2023-08-21T14:12:01;2.15;;;0.57;;
74471;SDS011;62920;53.572;10.050;2023-08-21T14:16:52;4.93;;;0.70;;
74471;SDS011;62920;53.572;10.050;2023-08-21T14:21:42;3.23;;;0.70;;
74471;SDS011;62920;53.572;10.050;2023-08-21T14:26:33;3.77;;;1.00;;
74471;SDS011;62920;53.572;10.050;2023-08-21T14:28:58;4.18;;;0.98;;
74471;SDS011;62920;53.572;10.050;2023-08-21T14:31:24;3.30;;;0.80;;
74471;SDS011;62920;53.572;10.050;2023-08-21T14:33:49;3.78;;;0.95;;
74471;SDS011;62920;53.572;10.050;2023-08-21T14:36:15;3.72;;;0.93;;
74471;SDS011;62920;53.572;10.050;2023-08-21T14:38:41;3.35;;;1.10;;
74471;SDS011;62920;53.572;10.050;2023-08-21T14:41:06;3.80;;;0.80;;
74471;SDS011;62920;53.572;10.050;2023-08-21T14:43:31;4.35;;;0.70;;
74471;SDS011;62920;53.572;10.050;2023-08-21T14:45:57;3.83;;;1.10;;
74471;SDS011;62920;53.572;10.050;2023-08-21T14:48:23;3.40;;;0.95;;
74471;SDS011;62920;53.572;10.050;2023-08-21T14:50:48;2.67;;;1.02;;
74471;SDS011;62920;53.572;10.050;2023-08-21T14:53:13;3.55;;;0.90;;
74471;SDS011;62920;53.572;10.050;2023-08-21T14:55:39;2.90;;;0.70;;
74471;SDS011;62920;53.572;10.050;2023-08-21T14:58:04;4.53;;;1.05;;
74471;SDS011;62920;53.572;10.050;2023-08-21T15:00:32;4.13;;;1.00;;
74471;SDS011;62920;53.572;10.050;2023-08-21T15:02:57;4.22;;;0.95;;
74471;SDS011;62920;53.572;10.050;2023-08-21T15:05:23;2.63;;;0.70;;
74471;SDS011;62920;53.572;10.050;2023-08-21T15:10:14;4.60;;;1.10;;
74471;SDS011;62920;53.572;10.050;2023-08-21T15:15:05;7.03;;;1.10;;
74471;SDS011;62920;53.572;10.050;2023-08-21T15:19:56;3.77;;;0.93;;
74471;SDS011;62920;53.572;10.050;2023-08-21T15:22:21;3.15;;;0.85;;
74471;SDS011;62920;53.572;10.050;2023-08-21T15:27:12;3.47;;;0.83;;
74471;SDS011;62920;53.572;10.050;2023-08-21T15:29:42;3.97;;;0.80;;
74471;SDS011;62920;53.572;10.050;2023-08-21T15:34:32;3.13;;;1.10;;
74471;SDS011;62920;53.572;10.050;2023-08-21T15:36:58;3.30;;;0.82;;
74471;SDS011;62920;53.572;10.050;2023-08-21T15:39:23;2.90;;;0.70;;